sensor_id;sensor_type;location;lat;lon;timestamp;P1;durP1;ratioP1;P2;durP2;ratioP2
45792;SDS011;31495;42.740;22.908;2023-10-13T00:00:30;8.18;;;4.97;;
45792;SDS011;31495;42.740;22.908;2023-10-13T00:01:36;12.10;;;5.55;;
45792;SDS011;31495;42.740;22.908;2023-10-13T00:02:37;9.63;;;4.72;;
45792;SDS011;31495;42.740;22.908;2023-10-13T00:03:39;11.68;;;5.15;;
45792;SDS011;31495;42.740;22.908;2023-10-13T00:04:39;9.13;;;4.53;;
45792;SDS011;31495;42.740;22.908;2023-10-13T00:05:39;11.57;;;5.25;;
45792;SDS011;31495;42.740;22.908;2023-10-13T00:06:40;8.80;;;5.18;;
45792;SDS011;31495;42.740;22.908;2023-10-13T00:07:41;12.48;;;5.00;;
45792;SDS011;31495;42.740;22.908;2023-10-13T00:08:41;12.20;;;5.00;;
45792;SDS011;31495;42.740;22.908;2023-10-13T00:09:41;11.60;;;5.38;;
45792;SDS011;31495;42.740;22.908;2023-10-13T00:10:41;11.70;;;5.28;;
45792;SDS011;31495;42.740;22.908;2023-10-13T00:11:42;9.65;;;5.13;;
45792;SDS011;31495;42.740;22.908;2023-10-13T00:12:45;13.00;;;6.10;;
45792;SDS011;31495;42.740;22.908;2023-10-13T00:13:48;10.27;;;5.95;;
45792;SDS011;31495;42.740;22.908;2023-10-13T00:14:52;11.57;;;5.60;;
45792;SDS011;31495;42.740;22.908;2023-10-13T00:15:54;9.25;;;4.90;;
45792;SDS011;31495;42.740;22.908;2023-10-13T00:16:56;9.32;;;5.22;;
45792;SDS011;31495;42.740;22.908;2023-10-13T00:18:07;10.05;;;5.05;;
45792;SDS011;31495;42.740;22.908;2023-10-13T00:19:11;9.43;;;5.22;;
45792;SDS011;31495;42.740;22.908;2023-10-13T00:20:12;13.20;;;5.40;;
45792;SDS011;31495;42.740;22.908;2023-10-13T00:21:37;9.77;;;4.85;;
45792;SDS011;31495;42.740;22.908;2023-10-13T00:22:37;7.05;;;4.47;;
45792;SDS011;31495;42.740;22.908;2023-10-13T00:23:40;10.70;;;5.28;;
45792;SDS011;31495;42.740;22.908;2023-10-13T00:24:53;12.05;;;4.95;;
45792;SDS011;31495;42.740;22.908;2023-10-13T00:25:57;9.57;;;4.63;;
45792;SDS011;31495;42.740;22.908;2023-10-13T00:26:57;8.10;;;4.50;;
45792;SDS011;31495;42.740;22.908;2023-10-13T00:28:00;9.15;;;5.07;;
45792;SDS011;31495;42.740;22.908;2023-10-13T00:29:01;13.77;;;5.50;;
45792;SDS011;31495;42.740;22.908;2023-10-13T00:30:14;10.45;;;4.63;;
45792;SDS011;31495;42.740;22.908;2023-10-13T00:31:17;12.50;;;5.80;;
45792;SDS011;31495;42.740;22.908;2023-10-13T00:32:17;8.00;;;4.28;;
45792;SDS011;31495;42.740;22.908;2023-10-13T00:33:22;11.45;;;5.05;;
45792;SDS011;31495;42.740;22.908;2023-10-13T00:34:22;10.00;;;5.53;;
45792;SDS011;31495;42.740;22.908;2023-10-13T00:35:28;6.30;;;4.13;;
45792;SDS011;31495;42.740;22.908;2023-10-13T00:36:35;12.63;;;5.20;;
45792;SDS011;31495;42.740;22.908;2023-10-13T00:37:35;10.25;;;5.15;;
45792;SDS011;31495;42.740;22.908;2023-10-13T00:38:41;11.35;;;5.45;;
45792;SDS011;31495;42.740;22.908;2023-10-13T00:39:40;9.70;;;5.15;;
45792;SDS011;31495;42.740;22.908;2023-10-13T00:40:43;11.00;;;5.35;;
45792;SDS011;31495;42.740;22.908;2023-10-13T00:41:50;7.65;;;4.82;;
45792;SDS011;31495;42.740;22.908;2023-10-13T00:43:00;13.25;;;5.10;;
45792;SDS011;31495;42.740;22.908;2023-10-13T00:44:18;10.30;;;5.20;;
45792;SDS011;31495;42.740;22.908;2023-10-13T00:45:37;9.82;;;5.18;;
45792;SDS011;31495;42.740;22.908;2023-10-13T00:46:40;12.07;;;4.63;;
45792;SDS011;31495;42.740;22.908;2023-10-13T00:47:44;7.68;;;4.90;;
45792;SDS011;31495;42.740;22.908;2023-10-13T00:48:48;7.95;;;5.32;;
45792;SDS011;31495;42.740;22.908;2023-10-13T00:49:51;10.55;;;5.45;;
45792;SDS011;31495;42.740;22.908;2023-10-13T00:50:50;13.73;;;5.97;;
45792;SDS011;31495;42.740;22.908;2023-10-13T00:51:50;11.45;;;4.95;;
45792;SDS011;31495;42.740;22.908;2023-10-13T00:52:50;10.15;;;6.25;;
45792;SDS011;31495;42.740;22.908;2023-10-13T00:53:50;12.65;;;5.32;;
45792;SDS011;31495;42.740;22.908;2023-10-13T00:54:50;8.00;;;4.80;;
45792;SDS011;31495;42.740;22.908;2023-10-13T00:55:53;10.38;;;5.40;;
45792;SDS011;31495;42.740;22.908;2023-10-13T00:56:56;9.65;;;4.65;;
45792;SDS011;31495;42.740;22.908;2023-10-13T00:58:03;14.70;;;5.25;;
45792;SDS011;31495;42.740;22.908;2023-10-13T00:59:03;9.80;;;5.50;;
45792;SDS011;31495;42.740;22.908;2023-10-13T01:00:03;10.07;;;5.40;;
45792;SDS011;31495;42.740;22.908;2023-10-13T01:01:18;9.88;;;5.60;;
45792;SDS011;31495;42.740;22.908;2023-10-13T01:02:21;12.45;;;5.55;;
45792;SDS011;31495;42.740;22.908;2023-10-13T01:03:33;13.35;;;5.65;;
45792;SDS011;31495;42.740;22.908;2023-10-13T01:04:32;11.68;;;5.38;;
45792;SDS011;31495;42.740;22.908;2023-10-13T01:05:32;10.60;;;6.30;;
45792;SDS011;31495;42.740;22.908;2023-10-13T01:06:33;12.45;;;5.57;;
45792;SDS011;31495;42.740;22.908;2023-10-13T01:07:33;14.40;;;5.10;;
45792;SDS011;31495;42.740;22.908;2023-10-13T01:08:36;9.63;;;5.40;;
45792;SDS011;31495;42.740;22.908;2023-10-13T01:09:40;14.52;;;5.93;;
45792;SDS011;31495;42.740;22.908;2023-10-13T01:10:44;11.38;;;5.40;;
45792;SDS011;31495;42.740;22.908;2023-10-13T01:11:47;11.63;;;6.43;;
45792;SDS011;31495;42.740;22.908;2023-10-13T01:12:52;9.77;;;5.05;;
45792;SDS011;31495;42.740;22.908;2023-10-13T01:13:51;11.77;;;5.53;;
45792;SDS011;31495;42.740;22.908;2023-10-13T01:14:53;9.70;;;5.75;;
45792;SDS011;31495;42.740;22.908;2023-10-13T01:15:52;8.50;;;5.38;;
45792;SDS011;31495;42.740;22.908;2023-10-13T01:16:52;12.25;;;6.18;;
45792;SDS011;31495;42.740;22.908;2023-10-13T01:17:52;16.10;;;5.63;;
45792;SDS011;31495;42.740;22.908;2023-10-13T01:18:55;13.05;;;5.00;;
45792;SDS011;31495;42.740;22.908;2023-10-13T01:20:02;7.43;;;4.75;;
45792;SDS011;31495;42.740;22.908;2023-10-13T01:21:04;12.63;;;5.43;;
45792;SDS011;31495;42.740;22.908;2023-10-13T01:22:04;10.52;;;5.55;;
45792;SDS011;31495;42.740;22.908;2023-10-13T01:23:08;10.60;;;5.65;;
45792;SDS011;31495;42.740;22.908;2023-10-13T01:24:17;15.05;;;5.70;;
45792;SDS011;31495;42.740;22.908;2023-10-13T01:25:19;12.20;;;5.47;;
45792;SDS011;31495;42.740;22.908;2023-10-13T01:26:19;11.85;;;5.93;;
45792;SDS011;31495;42.740;22.908;2023-10-13T01:27:25;15.48;;;6.18;;
45792;SDS011;31495;42.740;22.908;2023-10-13T01:28:25;9.00;;;4.93;;
45792;SDS011;31495;42.740;22.908;2023-10-13T01:29:24;13.93;;;5.93;;
45792;SDS011;31495;42.740;22.908;2023-10-13T01:30:28;9.93;;;5.32;;
45792;SDS011;31495;42.740;22.908;2023-10-13T01:31:27;7.57;;;4.93;;
45792;SDS011;31495;42.740;22.908;2023-10-13T01:32:27;9.57;;;5.60;;
45792;SDS011;31495;42.740;22.908;2023-10-13T01:33:27;9.20;;;5.85;;
45792;SDS011;31495;42.740;22.908;2023-10-13T01:34:27;11.27;;;6.20;;
45792;SDS011;31495;42.740;22.908;2023-10-13T01:35:27;15.07;;;5.45;;
45792;SDS011;31495;42.740;22.908;2023-10-13T01:36:35;11.07;;;4.85;;
45792;SDS011;31495;42.740;22.908;2023-10-13T01:37:35;13.07;;;5.35;;
45792;SDS011;31495;42.740;22.908;2023-10-13T01:38:35;9.80;;;4.90;;
45792;SDS011;31495;42.740;22.908;2023-10-13T01:39:36;11.73;;;5.38;;
45792;SDS011;31495;42.740;22.908;2023-10-13T01:40:36;14.48;;;4.78;;
45792;SDS011;31495;42.740;22.908;2023-10-13T01:41:36;10.18;;;5.40;;
45792;SDS011;31495;42.740;22.908;2023-10-13T01:42:39;8.23;;;5.30;;
45792;SDS011;31495;42.740;22.908;2023-10-13T01:43:38;9.57;;;4.95;;
45792;SDS011;31495;42.740;22.908;2023-10-13T01:44:38;20.55;;;5.80;;
45792;SDS011;31495;42.740;22.908;2023-10-13T01:45:37;10.80;;;5.50;;
45792;SDS011;31495;42.740;22.908;2023-10-13T01:46:48;10.60;;;5.68;;
45792;SDS011;31495;42.740;22.908;2023-10-13T01:47:48;11.35;;;5.63;;
45792;SDS011;31495;42.740;22.908;2023-10-13T01:48:50;14.93;;;6.57;;
45792;SDS011;31495;42.740;22.908;2023-10-13T01:49:53;15.05;;;6.40;;
45792;SDS011;31495;42.740;22.908;2023-10-13T01:50:53;9.93;;;5.22;;
45792;SDS011;31495;42.740;22.908;2023-10-13T01:52:15;9.40;;;5.43;;
45792;SDS011;31495;42.740;22.908;2023-10-13T01:53:15;10.27;;;5.35;;
45792;SDS011;31495;42.740;22.908;2023-10-13T01:54:17;9.32;;;5.65;;
45792;SDS011;31495;42.740;22.908;2023-10-13T01:55:17;12.73;;;4.90;;
45792;SDS011;31495;42.740;22.908;2023-10-13T01:56:19;10.48;;;5.85;;
45792;SDS011;31495;42.740;22.908;2023-10-13T01:57:22;12.13;;;4.45;;
45792;SDS011;31495;42.740;22.908;2023-10-13T01:58:23;16.27;;;6.15;;
45792;SDS011;31495;42.740;22.908;2023-10-13T01:59:25;11.00;;;5.32;;
45792;SDS011;31495;42.740;22.908;2023-10-13T02:00:26;12.25;;;6.22;;
45792;SDS011;31495;42.740;22.908;2023-10-13T02:01:32;10.13;;;5.85;;
45792;SDS011;31495;42.740;22.908;2023-10-13T02:02:33;10.82;;;5.90;;
45792;SDS011;31495;42.740;22.908;2023-10-13T02:03:33;14.13;;;5.55;;
45792;SDS011;31495;42.740;22.908;2023-10-13T02:04:33;10.63;;;5.95;;
45792;SDS011;31495;42.740;22.908;2023-10-13T02:05:33;10.13;;;5.10;;
45792;SDS011;31495;42.740;22.908;2023-10-13T02:06:36;8.63;;;5.32;;
45792;SDS011;31495;42.740;22.908;2023-10-13T02:07:36;13.05;;;5.10;;
45792;SDS011;31495;42.740;22.908;2023-10-13T02:08:38;10.55;;;6.30;;
45792;SDS011;31495;42.740;22.908;2023-10-13T02:09:39;12.80;;;6.05;;
45792;SDS011;31495;42.740;22.908;2023-10-13T02:10:39;9.95;;;5.45;;
45792;SDS011;31495;42.740;22.908;2023-10-13T02:11:43;13.57;;;6.22;;
45792;SDS011;31495;42.740;22.908;2023-10-13T02:12:46;10.30;;;5.70;;
45792;SDS011;31495;42.740;22.908;2023-10-13T02:13:46;9.68;;;5.50;;
45792;SDS011;31495;42.740;22.908;2023-10-13T02:14:53;11.40;;;5.90;;
45792;SDS011;31495;42.740;22.908;2023-10-13T02:15:53;14.48;;;6.55;;
45792;SDS011;31495;42.740;22.908;2023-10-13T02:16:55;9.82;;;6.55;;
45792;SDS011;31495;42.740;22.908;2023-10-13T02:18:15;14.70;;;5.88;;
45792;SDS011;31495;42.740;22.908;2023-10-13T02:19:42;10.35;;;6.05;;
45792;SDS011;31495;42.740;22.908;2023-10-13T02:20:49;12.57;;;6.82;;
45792;SDS011;31495;42.740;22.908;2023-10-13T02:21:54;15.00;;;6.75;;
45792;SDS011;31495;42.740;22.908;2023-10-13T02:22:58;13.93;;;6.50;;
45792;SDS011;31495;42.740;22.908;2023-10-13T02:23:58;9.13;;;5.90;;
45792;SDS011;31495;42.740;22.908;2023-10-13T02:25:05;12.85;;;6.72;;
45792;SDS011;31495;42.740;22.908;2023-10-13T02:26:05;11.68;;;6.18;;
45792;SDS011;31495;42.740;22.908;2023-10-13T02:27:11;10.23;;;6.72;;
45792;SDS011;31495;42.740;22.908;2023-10-13T02:28:14;9.88;;;6.10;;
45792;SDS011;31495;42.740;22.908;2023-10-13T02:29:14;8.20;;;5.63;;
45792;SDS011;31495;42.740;22.908;2023-10-13T02:30:16;13.65;;;5.93;;
45792;SDS011;31495;42.740;22.908;2023-10-13T02:31:22;11.45;;;6.07;;
45792;SDS011;31495;42.740;22.908;2023-10-13T02:32:24;10.50;;;5.75;;
45792;SDS011;31495;42.740;22.908;2023-10-13T02:33:26;11.82;;;5.65;;
45792;SDS011;31495;42.740;22.908;2023-10-13T02:34:31;10.23;;;5.63;;
45792;SDS011;31495;42.740;22.908;2023-10-13T02:35:31;12.23;;;6.13;;
45792;SDS011;31495;42.740;22.908;2023-10-13T02:36:40;11.20;;;5.90;;
45792;SDS011;31495;42.740;22.908;2023-10-13T02:37:49;9.40;;;5.65;;
45792;SDS011;31495;42.740;22.908;2023-10-13T02:38:54;9.85;;;5.43;;
45792;SDS011;31495;42.740;22.908;2023-10-13T02:39:57;16.15;;;6.28;;
45792;SDS011;31495;42.740;22.908;2023-10-13T02:40:57;12.15;;;6.07;;
45792;SDS011;31495;42.740;22.908;2023-10-13T02:42:04;11.15;;;5.28;;
45792;SDS011;31495;42.740;22.908;2023-10-13T02:43:06;9.40;;;6.40;;
45792;SDS011;31495;42.740;22.908;2023-10-13T02:44:07;11.88;;;5.47;;
45792;SDS011;31495;42.740;22.908;2023-10-13T02:45:15;9.95;;;5.63;;
45792;SDS011;31495;42.740;22.908;2023-10-13T02:46:17;11.07;;;6.18;;
45792;SDS011;31495;42.740;22.908;2023-10-13T02:47:16;9.52;;;5.60;;
45792;SDS011;31495;42.740;22.908;2023-10-13T02:48:18;10.18;;;6.28;;
45792;SDS011;31495;42.740;22.908;2023-10-13T02:49:17;8.95;;;5.28;;
45792;SDS011;31495;42.740;22.908;2023-10-13T02:50:18;13.68;;;6.20;;
45792;SDS011;31495;42.740;22.908;2023-10-13T02:51:23;9.93;;;5.55;;
45792;SDS011;31495;42.740;22.908;2023-10-13T02:52:30;11.27;;;5.70;;
45792;SDS011;31495;42.740;22.908;2023-10-13T02:53:37;10.15;;;5.85;;
45792;SDS011;31495;42.740;22.908;2023-10-13T02:54:37;7.15;;;5.13;;
45792;SDS011;31495;42.740;22.908;2023-10-13T02:55:51;12.20;;;7.03;;
45792;SDS011;31495;42.740;22.908;2023-10-13T02:56:51;10.15;;;5.80;;
45792;SDS011;31495;42.740;22.908;2023-10-13T02:58:02;14.98;;;8.32;;
45792;SDS011;31495;42.740;22.908;2023-10-13T02:59:03;21.50;;;9.30;;
45792;SDS011;31495;42.740;22.908;2023-10-13T03:00:06;19.20;;;7.95;;
45792;SDS011;31495;42.740;22.908;2023-10-13T03:01:14;17.33;;;8.68;;
45792;SDS011;31495;42.740;22.908;2023-10-13T03:02:17;14.65;;;9.23;;
45792;SDS011;31495;42.740;22.908;2023-10-13T03:03:16;13.45;;;8.48;;
45792;SDS011;31495;42.740;22.908;2023-10-13T03:04:19;15.52;;;7.95;;
45792;SDS011;31495;42.740;22.908;2023-10-13T03:05:25;15.80;;;7.85;;
45792;SDS011;31495;42.740;22.908;2023-10-13T03:06:28;15.48;;;8.73;;
45792;SDS011;31495;42.740;22.908;2023-10-13T03:07:31;13.70;;;7.90;;
45792;SDS011;31495;42.740;22.908;2023-10-13T03:08:30;18.65;;;8.30;;
45792;SDS011;31495;42.740;22.908;2023-10-13T03:09:30;15.38;;;8.55;;
45792;SDS011;31495;42.740;22.908;2023-10-13T03:10:37;16.02;;;8.57;;
45792;SDS011;31495;42.740;22.908;2023-10-13T03:11:45;23.85;;;8.48;;
45792;SDS011;31495;42.740;22.908;2023-10-13T03:12:48;16.98;;;9.55;;
45792;SDS011;31495;42.740;22.908;2023-10-13T03:13:48;18.58;;;10.45;;
45792;SDS011;31495;42.740;22.908;2023-10-13T03:14:50;24.35;;;12.82;;
45792;SDS011;31495;42.740;22.908;2023-10-13T03:15:56;24.70;;;11.82;;
45792;SDS011;31495;42.740;22.908;2023-10-13T03:16:57;26.40;;;11.20;;
45792;SDS011;31495;42.740;22.908;2023-10-13T03:18:14;17.67;;;9.50;;
45792;SDS011;31495;42.740;22.908;2023-10-13T03:19:17;22.30;;;12.05;;
45792;SDS011;31495;42.740;22.908;2023-10-13T03:20:18;27.95;;;13.23;;
45792;SDS011;31495;42.740;22.908;2023-10-13T03:21:23;25.50;;;12.88;;
45792;SDS011;31495;42.740;22.908;2023-10-13T03:22:36;24.33;;;12.55;;
45792;SDS011;31495;42.740;22.908;2023-10-13T03:23:43;22.83;;;10.70;;
45792;SDS011;31495;42.740;22.908;2023-10-13T03:24:44;13.63;;;9.02;;
45792;SDS011;31495;42.740;22.908;2023-10-13T03:25:45;21.52;;;9.50;;
45792;SDS011;31495;42.740;22.908;2023-10-13T03:26:48;16.88;;;9.30;;
45792;SDS011;31495;42.740;22.908;2023-10-13T03:27:51;20.45;;;11.85;;
45792;SDS011;31495;42.740;22.908;2023-10-13T03:28:51;18.13;;;9.18;;
45792;SDS011;31495;42.740;22.908;2023-10-13T03:29:51;18.23;;;9.50;;
45792;SDS011;31495;42.740;22.908;2023-10-13T03:30:53;15.63;;;9.38;;
45792;SDS011;31495;42.740;22.908;2023-10-13T03:31:53;15.45;;;9.05;;
45792;SDS011;31495;42.740;22.908;2023-10-13T03:33:06;17.70;;;9.23;;
45792;SDS011;31495;42.740;22.908;2023-10-13T03:34:06;21.27;;;9.70;;
45792;SDS011;31495;42.740;22.908;2023-10-13T03:35:11;14.60;;;8.98;;
45792;SDS011;31495;42.740;22.908;2023-10-13T03:36:13;14.32;;;7.85;;
45792;SDS011;31495;42.740;22.908;2023-10-13T03:37:33;10.10;;;6.80;;
45792;SDS011;31495;42.740;22.908;2023-10-13T03:38:38;14.85;;;7.13;;
45792;SDS011;31495;42.740;22.908;2023-10-13T03:39:39;11.73;;;5.85;;
45792;SDS011;31495;42.740;22.908;2023-10-13T03:40:44;10.82;;;6.78;;
45792;SDS011;31495;42.740;22.908;2023-10-13T03:41:47;11.82;;;7.05;;
45792;SDS011;31495;42.740;22.908;2023-10-13T03:42:53;12.05;;;7.90;;
45792;SDS011;31495;42.740;22.908;2023-10-13T03:44:09;12.38;;;6.93;;
45792;SDS011;31495;42.740;22.908;2023-10-13T03:45:16;14.13;;;6.95;;
45792;SDS011;31495;42.740;22.908;2023-10-13T03:46:17;18.17;;;7.47;;
45792;SDS011;31495;42.740;22.908;2023-10-13T03:47:20;12.98;;;7.07;;
45792;SDS011;31495;42.740;22.908;2023-10-13T03:48:26;11.63;;;6.47;;
45792;SDS011;31495;42.740;22.908;2023-10-13T03:49:25;17.35;;;8.65;;
45792;SDS011;31495;42.740;22.908;2023-10-13T03:50:25;23.40;;;11.73;;
45792;SDS011;31495;42.740;22.908;2023-10-13T03:51:31;17.98;;;10.45;;
45792;SDS011;31495;42.740;22.908;2023-10-13T03:52:31;19.02;;;11.52;;
45792;SDS011;31495;42.740;22.908;2023-10-13T03:53:36;18.52;;;10.98;;
45792;SDS011;31495;42.740;22.908;2023-10-13T03:54:51;19.15;;;10.70;;
45792;SDS011;31495;42.740;22.908;2023-10-13T03:55:51;17.48;;;10.85;;
45792;SDS011;31495;42.740;22.908;2023-10-13T03:57:08;29.17;;;12.40;;
45792;SDS011;31495;42.740;22.908;2023-10-13T03:58:10;17.52;;;10.02;;
45792;SDS011;31495;42.740;22.908;2023-10-13T03:59:15;21.63;;;9.68;;
45792;SDS011;31495;42.740;22.908;2023-10-13T04:00:15;17.00;;;9.45;;
45792;SDS011;31495;42.740;22.908;2023-10-13T04:01:22;15.40;;;9.40;;
45792;SDS011;31495;42.740;22.908;2023-10-13T04:02:33;13.90;;;8.70;;
45792;SDS011;31495;42.740;22.908;2023-10-13T04:03:33;17.70;;;9.90;;
45792;SDS011;31495;42.740;22.908;2023-10-13T04:04:35;16.63;;;9.65;;
45792;SDS011;31495;42.740;22.908;2023-10-13T04:05:55;17.63;;;9.70;;
45792;SDS011;31495;42.740;22.908;2023-10-13T04:07:05;18.50;;;9.60;;
45792;SDS011;31495;42.740;22.908;2023-10-13T04:08:05;20.33;;;9.45;;
45792;SDS011;31495;42.740;22.908;2023-10-13T04:09:23;14.05;;;8.10;;
45792;SDS011;31495;42.740;22.908;2023-10-13T04:10:29;14.73;;;9.05;;
45792;SDS011;31495;42.740;22.908;2023-10-13T04:11:44;23.75;;;9.65;;
45792;SDS011;31495;42.740;22.908;2023-10-13T04:13:19;26.92;;;11.50;;
45792;SDS011;31495;42.740;22.908;2023-10-13T04:14:42;14.35;;;7.60;;
45792;SDS011;31495;42.740;22.908;2023-10-13T04:15:43;13.10;;;7.65;;
45792;SDS011;31495;42.740;22.908;2023-10-13T04:17:03;14.32;;;7.35;;
45792;SDS011;31495;42.740;22.908;2023-10-13T04:18:11;20.10;;;9.40;;
45792;SDS011;31495;42.740;22.908;2023-10-13T04:19:33;17.40;;;9.07;;
45792;SDS011;31495;42.740;22.908;2023-10-13T04:20:53;16.60;;;9.15;;
45792;SDS011;31495;42.740;22.908;2023-10-13T04:22:02;13.30;;;7.82;;
45792;SDS011;31495;42.740;22.908;2023-10-13T04:23:13;13.15;;;8.45;;
45792;SDS011;31495;42.740;22.908;2023-10-13T04:24:25;19.88;;;8.68;;
45792;SDS011;31495;42.740;22.908;2023-10-13T04:25:38;20.80;;;8.85;;
45792;SDS011;31495;42.740;22.908;2023-10-13T04:26:51;17.20;;;7.83;;
45792;SDS011;31495;42.740;22.908;2023-10-13T04:28:11;23.42;;;9.65;;
45792;SDS011;31495;42.740;22.908;2023-10-13T04:29:33;21.75;;;10.40;;
45792;SDS011;31495;42.740;22.908;2023-10-13T04:30:52;16.52;;;8.93;;
45792;SDS011;31495;42.740;22.908;2023-10-13T04:31:55;16.20;;;8.30;;
45792;SDS011;31495;42.740;22.908;2023-10-13T04:32:59;16.67;;;7.55;;
45792;SDS011;31495;42.740;22.908;2023-10-13T04:34:16;20.55;;;8.57;;
45792;SDS011;31495;42.740;22.908;2023-10-13T04:35:19;13.85;;;8.27;;
45792;SDS011;31495;42.740;22.908;2023-10-13T04:36:20;15.00;;;8.88;;
45792;SDS011;31495;42.740;22.908;2023-10-13T04:37:39;11.32;;;7.18;;
45792;SDS011;31495;42.740;22.908;2023-10-13T04:38:58;19.55;;;8.13;;
45792;SDS011;31495;42.740;22.908;2023-10-13T04:40:05;15.75;;;8.45;;
45792;SDS011;31495;42.740;22.908;2023-10-13T04:41:09;14.20;;;8.48;;
45792;SDS011;31495;42.740;22.908;2023-10-13T04:43:40;12.07;;;6.95;;
45792;SDS011;31495;42.740;22.908;2023-10-13T04:45:03;24.67;;;8.05;;
45792;SDS011;31495;42.740;22.908;2023-10-13T04:47:34;18.00;;;8.63;;
45792;SDS011;31495;42.740;22.908;2023-10-13T04:48:41;16.52;;;7.53;;
45792;SDS011;31495;42.740;22.908;2023-10-13T04:49:52;13.35;;;7.32;;
45792;SDS011;31495;42.740;22.908;2023-10-13T04:50:52;26.67;;;7.88;;
45792;SDS011;31495;42.740;22.908;2023-10-13T04:52:11;10.50;;;6.10;;
45792;SDS011;31495;42.740;22.908;2023-10-13T04:53:14;10.35;;;5.63;;
45792;SDS011;31495;42.740;22.908;2023-10-13T04:54:27;17.52;;;6.65;;
45792;SDS011;31495;42.740;22.908;2023-10-13T04:55:48;15.30;;;6.30;;
45792;SDS011;31495;42.740;22.908;2023-10-13T04:57:03;16.35;;;6.90;;
45792;SDS011;31495;42.740;22.908;2023-10-13T04:58:22;10.38;;;6.05;;
45792;SDS011;31495;42.740;22.908;2023-10-13T04:59:41;9.55;;;6.13;;
45792;SDS011;31495;42.740;22.908;2023-10-13T05:01:00;11.98;;;6.65;;
45792;SDS011;31495;42.740;22.908;2023-10-13T05:02:22;13.05;;;7.20;;
45792;SDS011;31495;42.740;22.908;2023-10-13T05:03:40;12.02;;;6.57;;
45792;SDS011;31495;42.740;22.908;2023-10-13T05:06:10;17.35;;;6.60;;
45792;SDS011;31495;42.740;22.908;2023-10-13T05:07:30;10.93;;;6.38;;
45792;SDS011;31495;42.740;22.908;2023-10-13T05:08:51;15.90;;;7.53;;
45792;SDS011;31495;42.740;22.908;2023-10-13T05:10:10;13.93;;;6.07;;
45792;SDS011;31495;42.740;22.908;2023-10-13T05:11:28;14.63;;;7.28;;
45792;SDS011;31495;42.740;22.908;2023-10-13T05:12:46;11.68;;;6.80;;
45792;SDS011;31495;42.740;22.908;2023-10-13T05:14:04;19.42;;;7.60;;
45792;SDS011;31495;42.740;22.908;2023-10-13T05:15:23;15.07;;;7.13;;
45792;SDS011;31495;42.740;22.908;2023-10-13T05:16:41;13.27;;;6.70;;
45792;SDS011;31495;42.740;22.908;2023-10-13T05:17:59;12.63;;;7.10;;
45792;SDS011;31495;42.740;22.908;2023-10-13T05:19:18;12.25;;;7.25;;
45792;SDS011;31495;42.740;22.908;2023-10-13T05:20:36;9.73;;;6.78;;
45792;SDS011;31495;42.740;22.908;2023-10-13T05:22:08;16.75;;;8.30;;
45792;SDS011;31495;42.740;22.908;2023-10-13T05:23:26;16.50;;;7.47;;
45792;SDS011;31495;42.740;22.908;2023-10-13T05:24:45;12.50;;;7.18;;
45792;SDS011;31495;42.740;22.908;2023-10-13T05:26:03;12.82;;;6.30;;
45792;SDS011;31495;42.740;22.908;2023-10-13T05:27:21;14.02;;;6.57;;
45792;SDS011;31495;42.740;22.908;2023-10-13T05:28:40;14.05;;;7.53;;
45792;SDS011;31495;42.740;22.908;2023-10-13T05:29:58;13.65;;;7.30;;
45792;SDS011;31495;42.740;22.908;2023-10-13T05:31:16;15.20;;;6.75;;
45792;SDS011;31495;42.740;22.908;2023-10-13T05:32:35;18.00;;;7.43;;
45792;SDS011;31495;42.740;22.908;2023-10-13T05:33:53;15.88;;;7.03;;
45792;SDS011;31495;42.740;22.908;2023-10-13T05:35:12;14.02;;;7.45;;
45792;SDS011;31495;42.740;22.908;2023-10-13T05:36:31;15.95;;;6.80;;
45792;SDS011;31495;42.740;22.908;2023-10-13T05:37:49;19.73;;;7.78;;
45792;SDS011;31495;42.740;22.908;2023-10-13T05:39:07;20.60;;;9.32;;
45792;SDS011;31495;42.740;22.908;2023-10-13T05:40:25;16.83;;;8.02;;
45792;SDS011;31495;42.740;22.908;2023-10-13T05:41:44;16.33;;;8.35;;
45792;SDS011;31495;42.740;22.908;2023-10-13T05:43:02;18.92;;;8.27;;
45792;SDS011;31495;42.740;22.908;2023-10-13T05:44:20;21.15;;;9.23;;
45792;SDS011;31495;42.740;22.908;2023-10-13T05:46:59;18.08;;;8.90;;
45792;SDS011;31495;42.740;22.908;2023-10-13T05:48:18;22.35;;;9.80;;
45792;SDS011;31495;42.740;22.908;2023-10-13T05:49:23;22.80;;;10.63;;
45792;SDS011;31495;42.740;22.908;2023-10-13T05:50:40;23.48;;;9.68;;
45792;SDS011;31495;42.740;22.908;2023-10-13T05:51:58;15.90;;;9.45;;
45792;SDS011;31495;42.740;22.908;2023-10-13T05:53:05;16.00;;;10.00;;
45792;SDS011;31495;42.740;22.908;2023-10-13T05:54:11;18.25;;;9.85;;
45792;SDS011;31495;42.740;22.908;2023-10-13T05:55:14;20.85;;;9.65;;
45792;SDS011;31495;42.740;22.908;2023-10-13T05:56:33;18.15;;;9.18;;
45792;SDS011;31495;42.740;22.908;2023-10-13T05:57:51;22.38;;;9.23;;
45792;SDS011;31495;42.740;22.908;2023-10-13T05:59:09;16.55;;;9.32;;
45792;SDS011;31495;42.740;22.908;2023-10-13T06:00:27;21.75;;;9.35;;
45792;SDS011;31495;42.740;22.908;2023-10-13T06:01:45;25.38;;;9.63;;
45792;SDS011;31495;42.740;22.908;2023-10-13T06:03:04;19.63;;;9.18;;
45792;SDS011;31495;42.740;22.908;2023-10-13T06:04:22;19.83;;;8.85;;
45792;SDS011;31495;42.740;22.908;2023-10-13T06:05:40;20.20;;;8.02;;
45792;SDS011;31495;42.740;22.908;2023-10-13T06:06:59;17.75;;;8.68;;
45792;SDS011;31495;42.740;22.908;2023-10-13T06:08:17;18.83;;;9.32;;
45792;SDS011;31495;42.740;22.908;2023-10-13T06:09:35;15.82;;;8.40;;
45792;SDS011;31495;42.740;22.908;2023-10-13T06:11:00;29.70;;;12.55;;
45792;SDS011;31495;42.740;22.908;2023-10-13T06:12:20;25.52;;;10.75;;
45792;SDS011;31495;42.740;22.908;2023-10-13T06:13:38;33.08;;;13.00;;
45792;SDS011;31495;42.740;22.908;2023-10-13T06:14:56;27.00;;;11.85;;
45792;SDS011;31495;42.740;22.908;2023-10-13T06:16:15;25.77;;;13.70;;
45792;SDS011;31495;42.740;22.908;2023-10-13T06:17:34;25.45;;;13.25;;
45792;SDS011;31495;42.740;22.908;2023-10-13T06:18:53;18.30;;;11.43;;
45792;SDS011;31495;42.740;22.908;2023-10-13T06:20:11;21.98;;;10.48;;
45792;SDS011;31495;42.740;22.908;2023-10-13T06:21:30;23.80;;;11.70;;
45792;SDS011;31495;42.740;22.908;2023-10-13T06:22:48;22.42;;;10.48;;
45792;SDS011;31495;42.740;22.908;2023-10-13T06:24:07;22.67;;;10.55;;
45792;SDS011;31495;42.740;22.908;2023-10-13T06:25:26;19.92;;;9.90;;
45792;SDS011;31495;42.740;22.908;2023-10-13T06:26:47;18.27;;;10.25;;
45792;SDS011;31495;42.740;22.908;2023-10-13T06:28:05;18.67;;;10.43;;
45792;SDS011;31495;42.740;22.908;2023-10-13T06:29:25;22.63;;;8.93;;
45792;SDS011;31495;42.740;22.908;2023-10-13T06:30:24;15.65;;;9.93;;
45792;SDS011;31495;42.740;22.908;2023-10-13T06:31:23;14.73;;;7.90;;
45792;SDS011;31495;42.740;22.908;2023-10-13T06:32:25;13.93;;;8.40;;
45792;SDS011;31495;42.740;22.908;2023-10-13T06:33:26;13.65;;;8.27;;
45792;SDS011;31495;42.740;22.908;2023-10-13T06:34:31;15.50;;;8.05;;
45792;SDS011;31495;42.740;22.908;2023-10-13T06:35:50;15.88;;;8.52;;
45792;SDS011;31495;42.740;22.908;2023-10-13T06:36:50;14.30;;;8.65;;
45792;SDS011;31495;42.740;22.908;2023-10-13T06:37:53;17.45;;;7.75;;
45792;SDS011;31495;42.740;22.908;2023-10-13T06:38:53;16.38;;;8.32;;
45792;SDS011;31495;42.740;22.908;2023-10-13T06:40:15;15.70;;;9.05;;
45792;SDS011;31495;42.740;22.908;2023-10-13T06:41:20;17.52;;;9.68;;